Time;durP1;ratioP1;P1;durP2;ratioP2;P2;SDS_P1;SDS_P2;PMS_P1;PMS_P2;Temp;Humidity;BMP_temperature;BMP_pressure;BME280_temperature;BME280_humidity;BME280_pressure;Samples;Min_cycle;Max_cycle;Signal;HPM_P1;HPM_P2
2023/03/09 07:00:51;;;;;;;49.35;33.83;;;;;;;-145.79;83.15;77508.69;5301192;27;20405;-67
2023/03/09 07:03:25;;;;;;;48.08;32.95;;;;;;;-145.79;83.57;77517.16;5300471;28;20435;-67
2023/03/09 07:05:57;;;;;;;52.13;34.40;;;;;;;-145.79;83.66;77521.41;5301041;28;20038;-67
2023/03/09 07:08:28;;;;;;;43.72;32.00;;;;;;;-145.79;82.99;77542.59;5300133;28;20428;-66
2023/03/09 07:11:00;;;;;;;45.00;33.92;;;;;;;-145.79;82.96;77548.97;5301054;28;20131;-67
2023/03/09 07:13:32;;;;;;;49.13;35.15;;;;;;;-145.79;83.30;77553.22;5288121;28;20025;-67
2023/03/09 07:16:04;;;;;;;45.88;33.80;;;;;;;-145.79;83.44;77542.59;5279246;28;20025;-67
2023/03/09 07:18:35;;;;;;;46.90;31.88;;;;;;;-145.79;83.47;77561.69;5279742;28;20074;-67
2023/03/09 07:21:09;;;;;;;48.90;34.78;;;;;;;-145.79;83.34;77559.56;5279556;28;20017;-67
2023/03/09 07:23:40;;;;;;;43.75;32.65;;;;;;;-145.79;83.49;77553.22;5279035;28;20472;-67
2023/03/09 07:26:12;;;;;;;42.50;33.05;;;;;;;-145.79;83.41;77538.38;5279799;28;20028;-67
2023/03/09 07:28:43;;;;;;;45.13;34.25;;;;;;;-145.79;83.52;77534.13;5279649;28;20035;-67
2023/03/09 07:31:14;;;;;;;53.20;38.45;;;;;;;-145.79;83.28;77538.38;5279284;28;20510;-67
2023/03/09 07:33:48;;;;;;;46.97;33.85;;;;;;;-145.79;82.88;77542.59;5279646;28;20369;-67
2023/03/09 07:36:20;;;;;;;44.35;32.80;;;;;;;-145.79;82.72;77538.38;5279616;28;20032;-67
2023/03/09 07:38:51;;;;;;;44.13;32.88;;;;;;;-145.79;82.46;77540.50;5278613;28;20419;-67
2023/03/09 07:41:23;;;;;;;45.03;32.42;;;;;;;-145.79;82.13;77568.03;5279583;28;20079;-67
2023/03/09 07:43:54;;;;;;;42.95;32.00;;;;;;;-145.79;82.85;77572.28;5278471;28;20021;-67
2023/03/09 07:46:26;;;;;;;44.05;32.47;;;;;;;-145.79;82.58;77572.28;5288323;28;20025;-66
2023/03/09 07:48:58;;;;;;;44.70;31.92;;;;;;;-145.79;82.72;77557.44;5300065;28;20107;-66
2023/03/09 07:51:29;;;;;;;44.30;32.38;;;;;;;-145.79;82.38;77559.56;5299795;28;20487;-66
2023/03/09 07:54:01;;;;;;;42.70;31.13;;;;;;;-145.79;82.42;77563.81;5300070;28;20099;-66
2023/03/09 07:56:33;;;;;;;47.97;35.45;;;;;;;-145.79;81.79;77551.09;5299848;28;20028;-66
2023/03/09 07:59:12;;;;;;;45.38;34.35;;;;;;;-145.79;82.14;77551.09;5305714;28;20360;-66
2023/03/09 08:01:44;;;;;;;42.38;30.73;;;;;;;-145.79;82.64;77546.84;5321166;28;20471;-66
2023/03/09 08:04:16;;;;;;;42.35;32.40;;;;;;;-145.79;82.43;77540.50;5320067;28;20034;-66
2023/03/09 08:06:47;;;;;;;40.22;30.88;;;;;;;-145.79;81.47;77536.25;5320184;28;20020;-66
2023/03/09 08:09:19;;;;;;;42.92;31.63;;;;;;;-145.79;81.39;77544.72;5320992;28;20020;-66
2023/03/09 08:11:53;;;;;;;40.50;29.05;;;;;;;-145.79;81.61;77538.38;5308258;28;20025;-66
2023/03/09 08:14:24;;;;;;;39.90;30.30;;;;;;;-145.79;81.76;77538.38;5306601;28;20098;-66
2023/03/09 08:16:58;;;;;;;40.60;30.10;;;;;;;-145.79;81.79;77546.84;5306810;28;20177;-66
2023/03/09 08:19:30;;;;;;;42.88;31.80;;;;;;;-145.79;81.90;77551.09;5305796;28;20031;-66
2023/03/09 08:22:02;;;;;;;40.25;29.45;;;;;;;-145.79;81.87;77555.31;5305945;28;20099;-66
2023/03/09 08:24:33;;;;;;;42.70;31.52;;;;;;;-145.79;81.20;77568.03;5306630;28;20028;-66
2023/03/09 08:27:04;;;;;;;42.95;30.90;;;;;;;-145.79;81.84;77561.69;5305418;28;20081;-66
2023/03/09 08:29:35;;;;;;;43.17;31.75;;;;;;;-145.79;81.82;77548.97;5306494;28;20028;-68
2023/03/09 08:32:09;;;;;;;44.05;30.50;;;;;;;-145.79;82.01;77551.09;5306265;28;20047;-65
2023/03/09 08:34:40;;;;;;;42.25;31.63;;;;;;;-145.79;82.21;77553.22;5305465;28;20432;-65
2023/03/09 08:37:11;;;;;;;40.88;28.85;;;;;;;-145.79;81.25;77551.09;5305110;28;20024;-66
2023/03/09 08:39:43;;;;;;;41.58;29.98;;;;;;;-145.79;81.58;77553.22;5299600;28;20033;-67
2023/03/09 08:42:14;;;;;;;44.08;30.52;;;;;;;-145.79;81.07;77568.03;5287324;28;20123;-67
2023/03/09 08:44:45;;;;;;;44.78;31.25;;;;;;;-145.79;81.77;77555.31;5284755;28;20028;-67
2023/03/09 08:47:17;;;;;;;44.03;30.92;;;;;;;-145.79;81.51;77548.97;5284431;28;20020;-67
2023/03/09 08:49:48;;;;;;;40.55;29.30;;;;;;;-145.79;81.04;77540.50;5285004;28;20082;-67
2023/03/09 08:52:19;;;;;;;44.17;30.73;;;;;;;-145.79;81.50;77529.88;5285540;28;20111;-67
2023/03/09 08:54:51;;;;;;;45.10;30.10;;;;;;;-145.79;81.22;77525.66;5285169;28;20040;-66
2023/03/09 08:57:22;;;;;;;41.10;28.63;;;;;;;-145.79;80.11;77536.25;5284933;28;20173;-66
2023/03/09 08:59:55;;;;;;;39.58;28.15;;;;;;;-145.79;79.31;77544.72;5291370;28;20044;-66
2023/03/09 09:02:26;;;;;;;37.38;26.88;;;;;;;-145.79;80.51;77551.09;5300939;28;20436;-67
2023/03/09 09:04:57;;;;;;;42.15;30.45;;;;;;;-145.79;79.88;77529.88;5284656;28;20031;-67
2023/03/09 09:07:29;;;;;;;38.08;28.30;;;;;;;-145.79;79.45;77532.00;5300111;28;20055;-67
2023/03/09 09:10:01;;;;;;;43.85;29.38;;;;;;;-145.79;80.31;77527.78;5304449;28;20042;-69
2023/03/09 09:12:37;;;;;;;43.00;30.70;;;;;;;-145.79;79.54;77523.53;5292458;28;20115;-66
2023/03/09 09:15:13;;;;;;;41.63;28.52;;;;;;;-145.79;79.11;77527.78;5283679;28;20433;-68
2023/03/09 09:17:45;;;;;;;40.45;28.55;;;;;;;-145.79;78.92;77529.88;5285267;28;20429;-68
2023/03/09 09:20:16;;;;;;;43.90;29.55;;;;;;;-145.79;78.66;77534.13;5284031;28;20036;-68
2023/03/09 09:22:48;;;;;;;41.42;30.55;;;;;;;-145.79;78.62;77523.53;5282172;28;20032;-67
2023/03/09 09:25:20;;;;;;;42.78;29.98;;;;;;;-145.79;79.30;77504.47;5283787;28;20420;-68
2023/03/09 09:27:55;;;;;;;42.15;30.50;;;;;;;-145.79;79.43;77512.94;5284317;28;20468;-68
2023/03/09 09:30:27;;;;;;;42.33;30.48;;;;;;;-145.79;78.73;77521.41;5301143;28;20027;-69
2023/03/09 09:32:59;;;;;;;39.83;29.95;;;;;;;-145.79;78.58;77519.28;5305156;28;20016;-68
2023/03/09 09:35:30;;;;;;;43.80;31.35;;;;;;;-145.79;78.81;77529.88;5304722;28;20331;-68
2023/03/09 09:38:02;;;;;;;41.85;30.15;;;;;;;-145.79;79.25;77517.16;5303729;28;20027;-68
2023/03/09 09:40:36;;;;;;;45.83;31.67;;;;;;;-145.79;78.97;77527.78;5304967;28;20097;-68
2023/03/09 09:43:09;;;;;;;45.20;32.03;;;;;;;-145.79;78.91;77521.41;5305092;28;20024;-67
2023/03/09 09:45:43;;;;;;;44.10;29.98;;;;;;;-145.79;78.82;77523.53;5299464;28;20091;-68
2023/03/09 09:48:17;;;;;;;41.05;30.35;;;;;;;-145.79;78.67;77525.66;5284865;28;20024;-68
2023/03/09 09:50:51;;;;;;;43.67;30.35;;;;;;;-145.79;79.07;77517.16;5283078;28;20025;-68
2023/03/09 09:53:58;;;;;;;44.08;30.70;;;;;;;-145.79;78.44;77525.66;5283406;28;20032;-68
2023/03/09 09:56:41;;;;;;;43.25;30.75;;;;;;;-145.79;78.55;77517.16;5283627;28;20040;-68
2023/03/09 09:59:19;;;;;;;43.88;31.48;;;;;;;-145.79;79.50;77521.41;5284504;28;20053;-68
2023/03/09 10:01:58;;;;;;;45.17;32.17;;;;;;;-145.79;78.99;77521.41;5287495;28;20070;-68
2023/03/09 10:04:44;;;;;;;43.28;31.58;;;;;;;-145.79;79.55;77510.81;5288822;28;20356;-68
2023/03/09 10:07:18;;;;;;;45.35;30.70;;;;;;;-145.79;78.91;77504.47;5287259;28;20067;-67
2023/03/09 10:09:54;;;;;;;40.83;30.83;;;;;;;-145.79;78.98;77504.47;5282059;28;20017;-67
2023/03/09 10:12:26;;;;;;;42.22;30.65;;;;;;;-145.79;79.15;77502.34;5281448;28;20036;-68
2023/03/09 10:15:05;;;;;;;42.40;30.50;;;;;;;-145.79;78.46;77523.53;5293829;28;20446;-67
2023/03/09 10:17:42;;;;;;;34.55;26.23;;;;;;;-145.79;79.29;77495.97;5282317;28;20647;-70
2023/03/09 10:20:37;;;;;;;39.20;28.63;;;;;;;-145.79;79.25;77487.50;5290255;28;20043;-67
2023/03/09 10:23:19;;;;;;;40.20;28.65;;;;;;;-145.79;79.70;77489.63;5273872;28;20451;-67
2023/03/09 10:25:55;;;;;;;40.28;28.83;;;;;;;-145.79;79.47;77489.63;5303323;28;20024;-66
2023/03/09 10:28:34;;;;;;;36.53;26.55;;;;;;;-145.79;78.83;77485.38;5304064;28;20027;-66
2023/03/09 10:31:21;;;;;;;36.15;25.50;;;;;;;-145.79;79.49;77470.53;5303366;28;20485;-67
2023/03/09 10:34:17;;;;;;;32.78;25.08;;;;;;;-145.79;80.63;77440.88;5282220;28;20479;-67
2023/03/09 10:36:58;;;;;;;31.58;22.10;;;;;;;-145.79;82.90;77390.00;5283120;28;20020;-68
2023/03/09 10:39:38;;;;;;;37.75;27.00;;;;;;;-145.79;79.53;77432.38;5282211;28;20459;-68
2023/03/09 10:42:22;;;;;;;37.00;27.75;;;;;;;-145.79;78.18;77434.50;5282766;28;20536;-68
2023/03/09 10:45:12;;;;;;;38.58;27.35;;;;;;;-145.79;77.28;77447.22;5282707;28;20060;-68
2023/03/09 10:47:49;;;;;;;35.40;25.45;;;;;;;-145.79;76.91;77472.66;5283796;28;20083;-68
2023/03/09 10:50:26;;;;;;;41.25;29.65;;;;;;;-145.79;77.12;77474.78;5282615;28;20467;-69
2023/03/09 10:53:21;;;;;;;36.60;26.75;;;;;;;-145.79;77.34;77470.53;5282134;28;20047;-68
2023/03/09 10:55:55;;;;;;;35.22;26.42;;;;;;;-145.79;77.28;77462.06;5281524;28;20071;-68
2023/03/09 10:58:26;;;;;;;38.35;28.40;;;;;;;-145.79;77.21;77449.34;5290628;28;20434;-71
2023/03/09 11:01:24;;;;;;;32.88;24.85;;;;;;;-145.79;81.82;77396.34;5303007;28;20040;-70
2023/03/09 11:03:56;;;;;;;38.05;26.13;;;;;;;-145.79;83.75;77345.47;5303570;28;20024;-72
2023/03/09 11:06:35;;;;;;;36.00;28.95;;;;;;;-145.79;79.39;77368.78;5303951;28;20016;-71
2023/03/09 11:09:11;;;;;;;42.88;30.05;;;;;;;-145.79;77.42;77398.47;5303204;28;20024;-68
2023/03/09 11:11:45;;;;;;;39.03;28.20;;;;;;;-145.79;77.07;77411.19;5294838;28;20505;-68
2023/03/09 11:14:23;;;;;;;40.70;28.77;;;;;;;-145.79;77.28;77409.06;5303193;28;20028;-68
2023/03/09 11:17:00;;;;;;;36.90;26.23;;;;;;;-145.79;77.66;77411.19;5283406;28;20383;-68
2023/03/09 11:19:32;;;;;;;37.95;28.23;;;;;;;-145.79;78.19;77419.66;5281542;28;20043;-66
2023/03/09 11:22:12;;;;;;;38.13;28.23;;;;;;;-145.79;77.76;77423.91;5280549;28;20111;-66
2023/03/09 11:24:49;;;;;;;38.80;28.23;;;;;;;-145.79;78.41;77432.38;5281476;28;20525;-66
2023/03/09 11:27:28;;;;;;;40.30;30.60;;;;;;;-145.79;79.11;77411.19;5282433;28;20067;-67
2023/03/09 11:30:11;;;;;;;40.58;29.42;;;;;;;-145.79;79.28;77402.72;5281275;28;20039;-67
2023/03/09 11:32:42;;;;;;;37.58;28.10;;;;;;;-145.79;78.52;77409.06;5294345;28;20471;-66
2023/03/09 11:35:15;;;;;;;37.97;25.15;;;;;;;-145.79;81.49;77356.06;5303017;28;20078;-68
2023/03/09 11:37:50;;;;;;;39.88;27.83;;;;;;;-145.79;79.84;77404.84;5301741;28;20024;-68
2023/03/09 11:40:25;;;;;;;41.78;30.25;;;;;;;-145.79;79.58;77392.13;5302646;28;20111;-67
2023/03/09 11:43:03;;;;;;;38.33;28.77;;;;;;;-145.79;80.05;77385.75;5301972;28;20036;-69
2023/03/09 11:45:37;;;;;;;37.50;28.35;;;;;;;-145.79;79.70;77390.00;5301955;28;20051;-67
2023/03/09 11:48:32;;;;;;;39.85;30.38;;;;;;;-145.79;80.08;77385.75;5305955;28;20028;-68
2023/03/09 11:51:09;;;;;;;38.67;28.45;;;;;;;-145.79;79.62;77394.22;5306081;28;20020;-67
2023/03/09 11:53:51;;;;;;;43.15;29.55;;;;;;;-145.79;80.03;77394.22;5306443;28;20031;-67
2023/03/09 11:56:27;;;;;;;39.53;29.95;;;;;;;-145.79;80.14;77390.00;5285179;28;20021;-69
2023/03/09 11:59:32;;;;;;;36.88;28.23;;;;;;;-145.79;80.27;77398.47;5283998;28;20413;-68
2023/03/09 12:02:22;;;;;;;38.45;27.10;;;;;;;-145.79;80.36;77394.22;5284630;28;20043;-68
2023/03/09 12:04:53;;;;;;;46.70;30.70;;;;;;;-145.79;81.07;77400.59;5290862;28;20067;-68
2023/03/09 12:07:31;;;;;;;43.03;31.55;;;;;;;-145.79;81.28;77390.00;5306880;28;20483;-68
2023/03/09 12:10:17;;;;;;;43.17;30.20;;;;;;;-145.79;80.67;77398.47;5294873;28;20028;-69
2023/03/09 12:13:21;;;;;;;41.28;29.65;;;;;;;-145.79;80.86;77390.00;5283689;28;20132;-69
2023/03/09 12:16:08;;;;;;;41.40;30.70;;;;;;;-145.79;80.53;77383.63;5300053;28;20459;-69
2023/03/09 12:18:54;;;;;;;38.78;27.40;;;;;;;-145.79;80.99;77385.75;5299189;28;20452;-68
2023/03/09 12:21:30;;;;;;;45.20;30.50;;;;;;;-145.79;81.42;77381.50;5284999;28;20380;-69
2023/03/09 12:24:19;;;;;;;38.03;29.88;;;;;;;-145.79;81.84;77366.69;5285600;28;20066;-69
2023/03/09 12:27:12;;;;;;;51.65;36.65;;;;;;;-145.79;82.07;77364.56;5284898;28;20310;-68
2023/03/09 12:29:47;;;;;;;39.90;30.50;;;;;;;-145.79;81.76;77368.78;5285721;28;20502;-69
2023/03/09 12:32:21;;;;;;;42.08;30.92;;;;;;;-145.79;82.19;77356.06;5284742;28;20162;-69
2023/03/09 12:34:55;;;;;;;35.22;26.58;;;;;;;-145.79;82.31;77366.69;5285302;28;20047;-68
2023/03/09 12:37:38;;;;;;;37.97;28.15;;;;;;;-145.79;82.77;77356.06;5285119;28;20035;-69
2023/03/09 12:40:15;;;;;;;38.67;27.58;;;;;;;-145.79;82.68;77349.72;5284575;28;20029;-69
2023/03/09 12:42:48;;;;;;;37.95;25.80;;;;;;;-145.79;82.43;77345.47;5292853;28;20039;-69
2023/03/09 12:45:20;;;;;;;37.22;27.58;;;;;;;-145.79;82.55;77339.13;5306434;28;20051;-69
2023/03/09 12:48:18;;;;;;;32.67;24.17;;;;;;;-145.79;82.55;77324.28;5305443;28;20024;-69
2023/03/09 12:50:59;;;;;;;31.88;24.10;;;;;;;-145.79;82.88;77322.16;5306197;28;20024;-69
2023/03/09 12:53:31;;;;;;;34.95;25.90;;;;;;;-145.79;83.13;77322.16;5292232;28;20024;-69
2023/03/09 12:56:16;;;;;;;33.88;24.15;;;;;;;-145.79;83.23;77315.81;5285093;28;20025;-71
2023/03/09 12:58:51;;;;;;;33.95;24.30;;;;;;;-145.79;82.93;77303.09;5284393;28;20123;-69
2023/03/09 13:01:23;;;;;;;36.15;24.77;;;;;;;-145.79;82.99;77305.22;5283581;28;20078;-69
2023/03/09 13:04:00;;;;;;;105.03;79.18;;;;;;;-145.79;83.36;77303.09;5284838;28;20460;-68
2023/03/09 13:06:45;;;;;;;29.85;23.63;;;;;;;-145.79;83.26;77320.03;5284682;28;20020;-68
2023/03/09 13:09:22;;;;;;;30.83;21.38;;;;;;;-145.79;83.35;77307.31;5284600;28;20028;-68
2023/03/09 13:11:56;;;;;;;30.75;22.40;;;;;;;-145.79;83.54;77300.97;5284844;28;20020;-68
2023/03/09 13:14:27;;;;;;;31.45;21.75;;;;;;;-145.79;83.57;77303.09;5290381;28;20039;-67
2023/03/09 13:17:01;;;;;;;32.22;22.30;;;;;;;-145.79;83.48;77300.97;5305576;28;20092;-67
2023/03/09 13:19:35;;;;;;;28.48;20.58;;;;;;;-145.79;83.71;77305.22;5305284;28;20024;-67
2023/03/09 13:22:21;;;;;;;27.50;20.20;;;;;;;-145.79;83.66;77305.22;5303182;28;20425;-67
2023/03/09 13:25:11;;;;;;;;;;;;;;;-145.79;83.73;77290.38;5285002;28;20027;-68
2023/03/09 13:27:43;;;;;;;28.65;19.83;;;;;;;-145.79;83.32;77313.69;5295712;28;19915;-68
2023/03/09 13:30:24;;;;;;;27.48;20.17;;;;;;;-145.79;83.74;77311.56;5307746;28;20145;-67
2023/03/09 13:32:55;;;;;;;27.48;20.10;;;;;;;-145.79;83.81;77303.09;5302523;28;20431;-68
2023/03/09 13:35:38;;;;;;;26.77;18.60;;;;;;;-145.79;84.05;77300.97;5320122;28;20063;-67
2023/03/09 13:38:30;;;;;;;21.02;17.05;;;;;;;-145.79;84.66;77296.72;5306939;28;20487;-68
2023/03/09 13:41:03;;;;;;;22.55;17.65;;;;;;;-145.79;84.39;77317.94;5305204;28;20459;-68
2023/03/09 13:43:36;;;;;;;21.38;16.90;;;;;;;-145.79;84.89;77317.94;5298444;28;20051;-68
2023/03/09 13:46:29;;;;;;;23.83;18.20;;;;;;;-145.79;85.13;77298.84;5282405;28;20107;-68
2023/03/09 13:49:07;;;;;;;25.15;18.33;;;;;;;-145.79;85.08;77300.97;5281572;28;20361;-68
2023/03/09 13:51:49;;;;;;;23.35;17.90;;;;;;;-145.79;85.10;77288.25;5281705;28;20020;-68
2023/03/09 13:54:28;;;;;;;22.83;16.65;;;;;;;-145.79;85.04;77288.25;5284460;28;20463;-68
2023/03/09 13:57:20;;;;;;;21.67;17.05;;;;;;;-145.79;85.17;77273.41;5303069;28;20024;-68
2023/03/09 13:59:56;;;;;;;20.90;15.77;;;;;;;-145.79;85.48;77269.19;5304311;28;20059;-67
2023/03/09 14:02:30;;;;;;;20.73;15.45;;;;;;;-145.79;85.21;77271.28;5303838;28;20028;-68
2023/03/09 14:05:17;;;;;;;20.20;15.63;;;;;;;-145.79;85.37;77256.47;5303636;28;20123;-68
2023/03/09 14:07:56;;;;;;;19.85;15.55;;;;;;;-145.79;85.05;77258.56;5304211;28;20032;-68
2023/03/09 14:10:36;;;;;;;20.42;16.05;;;;;;;-145.79;84.95;77258.56;5303200;28;20032;-68
2023/03/09 14:13:25;;;;;;;22.02;14.75;;;;;;;-145.79;84.77;77250.09;5304250;28;20502;-68
2023/03/09 14:16:02;;;;;;;19.90;15.68;;;;;;;-145.79;85.13;77256.47;5304640;28;20050;-68
2023/03/09 14:18:49;;;;;;;18.77;13.70;;;;;;;-145.79;84.78;77243.75;5290369;28;20032;-68
2023/03/09 14:21:26;;;;;;;21.45;14.55;;;;;;;-145.79;85.40;77237.38;5291476;28;20023;-68
2023/03/09 14:24:11;;;;;;;18.17;13.75;;;;;;;-145.79;85.15;77233.16;5290777;28;20028;-69
2023/03/09 14:26:44;;;;;;;21.27;15.50;;;;;;;-145.79;85.25;77226.78;5303513;28;20515;-69
2023/03/09 14:29:29;;;;;;;19.90;15.23;;;;;;;-145.79;85.54;77211.94;5291820;28;20086;-67
2023/03/09 14:32:19;;;;;;;38.65;33.58;;;;;;;-145.79;85.73;77203.47;5287314;28;20036;-66
2023/03/09 14:34:52;;;;;;;22.50;17.15;;;;;;;-145.79;85.96;77216.19;5296671;28;20029;-67
2023/03/09 14:37:30;;;;;;;22.30;15.82;;;;;;;-145.79;86.09;77211.94;5295669;28;20020;-67
2023/03/09 14:40:19;;;;;;;149.65;120.10;;;;;;;-145.79;86.84;77216.19;5302560;28;20190;-67
2023/03/09 14:42:51;;;;;;;29.02;21.33;;;;;;;-145.79;86.09;77216.19;5296064;28;20028;-67
2023/03/09 14:45:24;;;;;;;20.92;16.20;;;;;;;-145.79;85.77;77211.94;5303799;28;20035;-67
2023/03/09 14:47:58;;;;;;;21.15;16.67;;;;;;;-145.79;85.72;77222.53;5303185;28;20420;-67
2023/03/09 14:50:30;;;;;;;22.60;16.05;;;;;;;-145.79;86.30;77216.19;5305851;28;20020;-68
2023/03/09 14:53:03;;;;;;;21.00;15.55;;;;;;;-145.79;86.40;77228.91;5282482;28;20020;-68
2023/03/09 14:55:34;;;;;;;20.38;14.73;;;;;;;-145.79;86.78;77258.56;5282246;28;20067;-68
2023/03/09 14:58:12;;;;;;;18.90;14.93;;;;;;;-145.79;86.75;77231.03;5281266;28;20578;-68
2023/03/09 15:00:43;;;;;;;21.27;17.42;;;;;;;-145.79;86.54;77209.81;5280670;28;20049;-68
2023/03/09 15:03:15;;;;;;;19.98;13.77;;;;;;;-145.79;86.22;77231.03;5296873;28;20116;-68
2023/03/09 15:05:47;;;;;;;20.67;14.48;;;;;;;-145.79;86.85;77209.81;5302284;28;20036;-68
2023/03/09 15:08:18;;;;;;;19.00;14.27;;;;;;;-145.79;86.54;77199.22;5300521;28;20021;-69
2023/03/09 15:10:49;;;;;;;22.77;18.75;;;;;;;-145.79;86.58;77197.09;5282534;28;20032;-68
2023/03/09 15:13:20;;;;;;;20.63;14.95;;;;;;;-145.79;86.64;77190.75;5282575;28;20025;-68
2023/03/09 15:15:53;;;;;;;18.15;13.70;;;;;;;-145.79;86.20;77178.03;5281402;28;20075;-68
2023/03/09 15:18:24;;;;;;;20.83;14.57;;;;;;;-145.79;86.47;77182.28;5282357;28;20028;-68
2023/03/09 15:20:58;;;;;;;21.42;15.30;;;;;;;-145.79;86.96;77173.78;5284795;28;20032;-69
2023/03/09 15:23:30;;;;;;;22.17;14.68;;;;;;;-145.79;86.92;77167.44;5284954;28;20032;-69
2023/03/09 15:26:05;;;;;;;19.48;14.95;;;;;;;-145.79;87.36;77161.06;5305279;28;20024;-67
2023/03/09 15:28:36;;;;;;;23.67;15.93;;;;;;;-145.79;87.04;77150.47;5301919;28;20039;-67
2023/03/09 15:31:11;;;;;;;21.98;16.17;;;;;;;-145.79;86.43;77156.84;5316961;28;20470;-67
2023/03/09 15:33:42;;;;;;;20.73;14.38;;;;;;;-145.79;86.72;77139.88;5300854;28;20059;-67
2023/03/09 15:36:13;;;;;;;20.50;14.75;;;;;;;-145.79;87.09;77127.16;5300823;28;20409;-66
2023/03/09 15:38:46;;;;;;;19.02;15.23;;;;;;;-145.79;86.91;77127.16;5292918;28;20027;-66
2023/03/09 15:41:19;;;;;;;21.42;15.85;;;;;;;-145.79;87.15;77122.94;5311531;28;20026;-67
2023/03/09 15:43:52;;;;;;;19.60;14.00;;;;;;;-145.79;87.09;77105.97;5299975;28;20036;-68
2023/03/09 15:46:25;;;;;;;19.08;13.60;;;;;;;-145.79;87.03;77105.97;5291579;28;20157;-68
2023/03/09 15:48:56;;;;;;;20.92;14.02;;;;;;;-145.79;86.95;77095.38;5305515;28;20106;-68
2023/03/09 15:51:27;;;;;;;21.83;16.30;;;;;;;-145.79;86.85;77101.72;5305829;28;20024;-69
2023/03/09 15:53:59;;;;;;;20.33;15.02;;;;;;;-145.79;86.86;77097.50;5304927;28;20024;-68
2023/03/09 15:56:31;;;;;;;23.02;15.98;;;;;;;-145.79;86.45;77105.97;5305402;28;20024;-68
2023/03/09 15:59:04;;;;;;;20.58;15.98;;;;;;;-145.79;86.70;77103.84;5302412;28;20139;-68
2023/03/09 16:01:35;;;;;;;19.90;15.13;;;;;;;-145.79;87.28;77093.25;5285612;28;20471;-67
2023/03/09 16:04:07;;;;;;;19.48;14.88;;;;;;;-145.79;87.89;77080.53;5287369;28;20024;-67
2023/03/09 16:06:38;;;;;;;19.35;14.63;;;;;;;-145.79;87.38;77093.25;5307013;28;20463;-69
2023/03/09 16:09:10;;;;;;;23.27;17.20;;;;;;;-145.79;87.81;77078.41;5304642;28;20036;-68
2023/03/09 16:11:42;;;;;;;66.05;52.83;;;;;;;-145.79;87.49;77082.66;5306367;28;20028;-68
2023/03/09 16:14:13;;;;;;;19.90;15.18;;;;;;;-145.79;87.99;77067.81;5305971;28;20024;-68
2023/03/09 16:16:44;;;;;;;22.50;15.25;;;;;;;-145.79;87.63;77074.19;5300698;28;20127;-69
2023/03/09 16:19:15;;;;;;;20.95;15.43;;;;;;;-145.79;87.89;77065.69;5284847;28;20029;-69
2023/03/09 16:21:47;;;;;;;22.42;15.88;;;;;;;-145.79;87.61;77072.06;5294725;28;20052;-69
2023/03/09 16:24:19;;;;;;;21.23;15.82;;;;;;;-145.79;88.45;77050.88;5305484;28;20099;-69
2023/03/09 16:26:50;;;;;;;19.38;15.30;;;;;;;-145.79;88.30;77042.38;5305989;28;20463;-69
2023/03/09 16:29:23;;;;;;;21.40;15.23;;;;;;;-145.79;87.98;77036.03;5306490;28;20088;-68
2023/03/09 16:31:54;;;;;;;21.15;15.55;;;;;;;-145.79;87.81;77042.38;5305070;28;20459;-67
